Time;durP1;ratioP1;P1;durP2;ratioP2;P2;SDS_P1;SDS_P2;PMS_P1;PMS_P2;Temp;Humidity;BMP_temperature;BMP_pressure;BME280_temperature;BME280_humidity;BME280_pressure;Samples;Min_cycle;Max_cycle;Signal;HPM_P1;HPM_P2
2023/10/04 00:00:21;;;;;;;1.50;0.82;;;;;;;-146.56;100.00;60226.78;2529152;29;20087;-90
2023/10/04 00:02:55;;;;;;;2.78;1.00;;;;;;;-146.56;100.00;60226.78;2528613;29;20056;-89
2023/10/04 00:05:10;;;;;;;1.42;0.75;;;;;;;-146.56;100.00;60226.78;2529415;29;20057;-89
2023/10/04 00:07:25;;;;;;;2.95;1.05;;;;;;;-146.56;100.00;60226.78;2528472;29;20088;-88
2023/10/04 00:09:39;;;;;;;1.27;0.82;;;;;;;-146.56;100.00;60226.78;2528290;29;20083;-88
2023/10/04 00:11:53;;;;;;;2.28;0.95;;;;;;;-146.56;100.00;60226.78;2528483;29;20056;-89
2023/10/04 00:14:07;;;;;;;1.10;0.73;;;;;;;-146.56;100.00;60226.78;2528380;29;20148;-88
2023/10/04 00:16:22;;;;;;;3.50;0.82;;;;;;;-146.56;100.00;60226.78;2529141;29;20249;-89
2023/10/04 00:18:36;;;;;;;2.80;0.77;;;;;;;-146.56;100.00;60226.78;2529119;29;20519;-88
2023/10/04 00:20:50;;;;;;;;;;;;;;;-146.56;100.00;60226.78;2530172;29;20070;-90
2023/10/04 00:23:05;;;;;;;0.93;0.63;;;;;;;-146.56;100.00;60226.78;2528501;29;20003;-89
2023/10/04 00:25:25;;;;;;;1.40;0.93;;;;;;;-146.56;100.00;60226.78;2517940;29;20433;-89
2023/10/04 00:27:43;;;;;;;2.35;1.08;;;;;;;-146.56;100.00;60226.78;2528032;29;20048;-89
2023/10/04 00:29:57;;;;;;;1.92;0.90;;;;;;;-146.56;100.00;60226.78;2528558;29;20045;-89
2023/10/04 00:32:12;;;;;;;1.13;0.77;;;;;;;-146.56;100.00;60226.78;2529198;29;20099;-89
2023/10/04 00:34:26;;;;;;;3.72;1.00;;;;;;;-146.56;100.00;60226.78;2529101;29;20364;-90
2023/10/04 00:36:41;;;;;;;2.15;1.00;;;;;;;-146.56;100.00;60226.78;2529266;29;20132;-89
2023/10/04 00:38:55;;;;;;;2.25;1.00;;;;;;;-146.56;100.00;60226.78;2528477;29;20080;-88
2023/10/04 00:41:11;;;;;;;4.90;1.15;;;;;;;-146.56;100.00;60226.78;2528532;29;20139;-90
2023/10/04 00:43:25;;;;;;;1.83;0.85;;;;;;;-146.56;100.00;60226.78;2530075;29;20067;-90
2023/10/04 00:45:41;;;;;;;3.63;0.93;;;;;;;-146.56;100.00;60226.78;2530973;29;20076;-91
2023/10/04 00:47:58;;;;;;;3.63;1.08;;;;;;;-146.56;100.00;60226.78;2530739;29;20629;-91
2023/10/04 00:50:16;;;;;;;2.15;1.05;;;;;;;-146.56;100.00;60226.78;2530889;29;20072;-91
2023/10/04 00:52:30;;;;;;;1.85;0.88;;;;;;;-146.56;100.00;60226.78;2530810;29;20056;-89
2023/10/04 00:54:44;;;;;;;1.70;0.93;;;;;;;-146.56;100.00;60226.78;2530165;29;20084;-89
2023/10/04 00:56:58;;;;;;;1.40;0.80;;;;;;;-146.56;100.00;60226.78;2530049;29;20056;-89
2023/10/04 00:59:15;;;;;;;2.08;1.23;;;;;;;-146.56;100.00;60226.78;2529999;29;20076;-91
2023/10/04 01:01:29;;;;;;;0.88;0.65;;;;;;;-146.56;100.00;60226.78;2530693;29;20040;-91
2023/10/04 01:03:45;;;;;;;1.90;0.90;;;;;;;-146.56;100.00;60226.78;2530734;29;20480;-91
2023/10/04 01:06:00;;;;;;;2.10;1.20;;;;;;;-146.56;100.00;60226.78;2530536;29;20484;-91
2023/10/04 01:08:20;;;;;;;1.88;1.00;;;;;;;-146.56;100.00;60226.78;2530758;29;20144;-91
2023/10/04 01:10:36;;;;;;;1.63;0.90;;;;;;;-146.56;100.00;60226.78;2529842;29;20052;-89
2023/10/04 01:12:52;;;;;;;2.28;1.10;;;;;;;-146.56;100.00;60226.78;2529794;29;20077;-89
2023/10/04 01:15:25;;;;;;;2.03;0.88;;;;;;;-146.56;100.00;60226.78;2529525;29;20052;-89
2023/10/04 01:17:40;;;;;;;4.88;0.95;;;;;;;-146.56;100.00;60226.78;2529400;29;20357;-89
2023/10/04 01:19:54;;;;;;;2.03;1.00;;;;;;;-146.56;100.00;60226.78;2530690;29;20080;-88
2023/10/04 01:22:09;;;;;;;2.42;1.27;;;;;;;-146.56;100.00;60226.78;2530150;29;20545;-90
2023/10/04 01:24:23;;;;;;;4.50;1.25;;;;;;;-146.56;100.00;60226.78;2530418;29;20057;-88
2023/10/04 01:26:39;;;;;;;2.28;0.88;;;;;;;-146.56;100.00;60226.78;2525243;29;20072;-88
2023/10/04 01:28:53;;;;;;;1.83;0.90;;;;;;;-146.56;100.00;60226.78;2529689;29;20064;-89
2023/10/04 01:31:07;;;;;;;;;;;;;;;-146.56;100.00;60226.78;2530214;29;20064;-89
2023/10/04 01:33:21;;;;;;;2.17;1.10;;;;;;;-146.56;100.00;60226.78;2529699;29;19954;-89
2023/10/04 01:35:36;;;;;;;1.40;1.00;;;;;;;-146.56;100.00;60226.78;2530198;29;20052;-92
2023/10/04 01:37:52;;;;;;;2.15;1.40;;;;;;;-146.56;100.00;60226.78;2530403;29;20080;-91
2023/10/04 01:40:12;;;;;;;3.75;1.08;;;;;;;-146.56;100.00;60226.78;2530348;29;20085;-91
2023/10/04 01:42:26;;;;;;;1.60;1.02;;;;;;;-146.56;100.00;60226.78;2530235;29;20660;-91
2023/10/04 01:44:40;;;;;;;1.13;0.73;;;;;;;-146.56;100.00;60226.78;2518804;29;20620;-91
2023/10/04 01:46:58;;;;;;;1.80;0.98;;;;;;;-146.56;100.00;60226.78;2529286;29;20079;-91
2023/10/04 01:49:12;;;;;;;2.83;1.02;;;;;;;-146.56;100.00;60226.78;2518627;29;20565;-90
2023/10/04 01:51:27;;;;;;;2.25;1.30;;;;;;;-146.56;100.00;60226.78;2519171;29;20545;-90
2023/10/04 01:53:42;;;;;;;1.92;1.00;;;;;;;-146.56;100.00;60226.78;2529049;29;20049;-90
2023/10/04 01:55:56;;;;;;;3.45;1.08;;;;;;;-146.56;100.00;60226.78;2529937;29;20045;-90
2023/10/04 01:58:10;;;;;;;3.55;1.50;;;;;;;-146.56;100.00;60226.78;2529953;29;20076;-90
2023/10/04 02:00:28;;;;;;;3.17;1.10;;;;;;;-146.56;100.00;60226.78;2529005;29;20481;-90
2023/10/04 02:02:43;;;;;;;2.20;1.15;;;;;;;-146.56;100.00;60226.78;2529298;29;20119;-90
2023/10/04 02:04:57;;;;;;;6.97;1.77;;;;;;;-146.56;100.00;60226.78;2529116;29;20123;-90
2023/10/04 02:07:11;;;;;;;;;;;;;;;-146.56;100.00;60226.78;2530501;29;20048;-90
2023/10/04 02:09:25;;;;;;;5.43;1.20;;;;;;;-146.56;100.00;60226.78;2529783;29;19958;-90
2023/10/04 02:11:41;;;;;;;2.15;0.95;;;;;;;-146.56;100.00;60226.78;2529687;29;20052;-90
2023/10/04 02:13:57;;;;;;;2.20;1.20;;;;;;;-146.56;100.00;60226.78;2529196;29;20064;-90
2023/10/04 02:16:18;;;;;;;2.22;1.08;;;;;;;-146.56;100.00;60226.78;2529165;29;20132;-89
2023/10/04 02:18:33;;;;;;;2.47;1.00;;;;;;;-146.56;100.00;60226.78;2529174;29;20052;-90
2023/10/04 02:20:53;;;;;;;2.88;1.10;;;;;;;-146.56;100.00;60226.78;2529309;29;20087;-90
2023/10/04 02:23:07;;;;;;;1.15;0.80;;;;;;;-146.56;100.00;60226.78;2518873;29;20048;-90
2023/10/04 02:25:22;;;;;;;3.85;1.13;;;;;;;-146.56;100.00;60226.78;2528665;29;20144;-89
2023/10/04 02:27:36;;;;;;;1.95;1.00;;;;;;;-146.56;100.00;60226.78;2529502;29;20048;-90
2023/10/04 02:29:51;;;;;;;1.83;0.93;;;;;;;-146.56;100.00;60226.78;2529946;29;20079;-90
2023/10/04 02:32:09;;;;;;;3.33;1.05;;;;;;;-146.56;100.00;60226.78;2529109;29;20045;-90
2023/10/04 02:34:23;;;;;;;2.13;1.10;;;;;;;-146.56;100.00;60226.78;2529042;29;20067;-90
2023/10/04 02:36:43;;;;;;;1.80;0.90;;;;;;;-146.56;100.00;60226.78;2529098;29;20062;-89
2023/10/04 02:38:58;;;;;;;1.92;1.02;;;;;;;-146.56;100.00;60226.78;2529014;29;20067;-90
2023/10/04 02:41:12;;;;;;;2.90;0.95;;;;;;;-146.56;100.00;60226.78;2530224;29;20056;-90
2023/10/04 02:43:27;;;;;;;;;;;;;;;-146.56;100.00;60226.78;2524999;29;20049;-90
2023/10/04 02:45:41;;;;;;;3.33;0.98;;;;;;;-146.56;100.00;60226.78;2519024;29;19931;-91
2023/10/04 02:47:56;;;;;;;1.75;0.98;;;;;;;-146.56;100.00;60226.78;2518109;29;20078;-90
2023/10/04 02:50:10;;;;;;;3.15;1.00;;;;;;;-146.56;100.00;60226.78;2528878;29;20140;-90
2023/10/04 02:52:27;;;;;;;3.75;1.17;;;;;;;-146.56;100.00;60226.78;2528848;29;20063;-89
2023/10/04 02:54:41;;;;;;;1.25;1.00;;;;;;;-146.56;100.00;60226.78;2529159;29;20076;-89
2023/10/04 02:56:56;;;;;;;1.58;0.88;;;;;;;-146.56;100.00;60226.78;2529893;29;20059;-90
2023/10/04 02:59:10;;;;;;;1.48;1.00;;;;;;;-146.56;100.00;60226.78;2529896;29;20083;-90
2023/10/04 03:01:26;;;;;;;1.85;1.10;;;;;;;-146.56;100.00;60226.78;2529450;29;20068;-91
2023/10/04 03:03:46;;;;;;;5.00;1.17;;;;;;;-146.56;100.00;60226.78;2528801;29;20052;-90
2023/10/04 03:06:00;;;;;;;2.15;1.10;;;;;;;-146.56;100.00;60226.78;2518336;29;20086;-90
2023/10/04 03:08:17;;;;;;;2.70;1.10;;;;;;;-146.56;100.00;60226.78;2528653;29;20048;-89
2023/10/04 03:10:33;;;;;;;3.25;1.10;;;;;;;-146.56;100.00;60226.78;2518445;29;20148;-89
2023/10/04 03:12:49;;;;;;;3.88;1.20;;;;;;;-146.56;100.00;60226.78;2529276;29;20103;-88
2023/10/04 03:15:04;;;;;;;2.53;1.00;;;;;;;-146.56;100.00;60226.78;2523525;29;20088;-89
2023/10/04 03:17:19;;;;;;;2.47;1.08;;;;;;;-146.56;100.00;60226.78;2529588;29;20048;-89
2023/10/04 03:19:36;;;;;;;2.13;1.10;;;;;;;-146.56;100.00;60226.78;2528722;29;20053;-89
2023/10/04 03:21:51;;;;;;;2.85;1.17;;;;;;;-146.56;100.00;60226.78;2528858;29;20139;-88
2023/10/04 03:24:10;;;;;;;4.07;1.42;;;;;;;-146.56;100.00;60226.78;2528760;29;20136;-87
2023/10/04 03:26:24;;;;;;;2.88;1.38;;;;;;;-146.56;100.00;60226.78;2527327;29;20052;-89
2023/10/04 03:28:38;;;;;;;1.63;1.10;;;;;;;-146.56;100.00;60226.78;2528839;29;20120;-89
2023/10/04 03:30:53;;;;;;;2.53;1.00;;;;;;;-146.56;100.00;60226.78;2529371;29;20088;-88
2023/10/04 03:33:07;;;;;;;1.65;1.25;;;;;;;-146.56;100.00;60226.78;2529283;29;20119;-91
2023/10/04 03:35:21;;;;;;;1.17;0.90;;;;;;;-146.56;100.00;60226.78;2528618;29;20523;-88
2023/10/04 03:37:40;;;;;;;3.33;1.40;;;;;;;-146.56;100.00;60226.78;2528298;29;20099;-89
2023/10/04 03:39:54;;;;;;;1.55;1.00;;;;;;;-146.56;100.00;60226.78;2528498;29;20045;-88
2023/10/04 03:42:11;;;;;;;1.98;1.00;;;;;;;-146.56;100.00;60226.78;2528561;29;20111;-89
2023/10/04 03:44:25;;;;;;;1.90;1.20;;;;;;;-146.56;100.00;60226.78;2529225;29;20516;-89
2023/10/04 03:46:40;;;;;;;6.25;1.30;;;;;;;-146.56;100.00;60226.78;2529613;29;20135;-89
2023/10/04 03:48:54;;;;;;;3.92;1.00;;;;;;;-146.56;100.00;60226.78;2529273;29;20132;-89
2023/10/04 03:51:09;;;;;;;2.55;1.30;;;;;;;-146.56;100.00;60226.78;2528419;29;20132;-89
2023/10/04 03:53:22;;;;;;;;;;;;;;;-146.56;100.00;60226.78;2529311;29;20053;-89
2023/10/04 03:54:38;;;;;;;1.63;1.10;;;;;;;-146.56;100.00;60226.78;2527354;29;19931;-89
2023/10/04 03:55:54;;;;;;;1.60;1.20;;;;;;;-146.56;100.00;60226.78;2528711;29;20497;-90
2023/10/04 03:57:09;;;;;;;1.83;1.13;;;;;;;-146.56;100.00;60226.78;2528557;29;20052;-89
2023/10/04 03:58:25;;;;;;;2.28;1.20;;;;;;;-146.56;100.00;60226.78;2529353;29;20063;-90
2023/10/04 04:00:40;;;;;;;2.30;1.45;;;;;;;-146.56;100.00;60226.78;2517763;29;20080;-89
2023/10/04 04:02:55;;;;;;;1.25;1.05;;;;;;;-146.56;100.00;60226.78;2529552;29;20533;-90
2023/10/04 04:05:21;;;;;;;4.32;1.25;;;;;;;-146.56;100.00;60226.78;2529226;29;20087;-89
2023/10/04 04:07:35;;;;;;;1.98;1.30;;;;;;;-146.56;100.00;60226.78;2529435;29;20256;-89
2023/10/04 04:09:49;;;;;;;1.75;1.15;;;;;;;-146.56;100.00;60226.78;2529225;29;20049;-90
2023/10/04 04:12:05;;;;;;;2.22;1.15;;;;;;;-146.56;100.00;60226.78;2528695;29;20088;-90
2023/10/04 04:14:19;;;;;;;1.75;1.13;;;;;;;-146.56;100.00;60226.78;2528288;29;20151;-91
2023/10/04 04:16:33;;;;;;;1.77;1.33;;;;;;;-146.56;100.00;60226.78;2528547;29;20048;-91
2023/10/04 04:18:47;;;;;;;2.33;1.17;;;;;;;-146.56;100.00;60226.78;2531030;29;20076;-90
2023/10/04 04:21:05;;;;;;;3.67;1.20;;;;;;;-146.56;100.00;60226.78;2530830;29;20406;-91
2023/10/04 04:23:19;;;;;;;3.05;1.40;;;;;;;-146.56;100.00;60226.78;2530890;29;20081;-91
2023/10/04 04:25:33;;;;;;;2.30;1.20;;;;;;;-146.56;100.00;60226.78;2530476;29;20198;-91
2023/10/04 04:27:51;;;;;;;2.15;1.38;;;;;;;-146.56;100.00;60226.78;2529975;29;20044;-91
2023/10/04 04:30:05;;;;;;;4.53;1.48;;;;;;;-146.56;100.00;60226.78;2530188;29;20085;-90
2023/10/04 04:32:26;;;;;;;2.17;1.30;;;;;;;-146.56;100.00;60226.78;2530032;29;20169;-91
2023/10/04 04:34:42;;;;;;;2.00;1.17;;;;;;;-146.56;100.00;60226.78;2530681;29;20044;-90
2023/10/04 04:36:56;;;;;;;4.68;1.35;;;;;;;-146.56;100.00;60226.78;2519637;29;20121;-90
2023/10/04 04:39:16;;;;;;;2.50;1.40;;;;;;;-146.56;100.00;60226.78;2530638;29;20067;-90
2023/10/04 04:41:35;;;;;;;2.42;1.60;;;;;;;-146.56;100.00;60226.78;2528720;29;20100;-91
2023/10/04 04:43:49;;;;;;;3.97;1.60;;;;;;;-146.56;100.00;60226.78;2529861;29;20481;-89
2023/10/04 04:46:15;;;;;;;2.22;1.20;;;;;;;-146.56;100.00;60226.78;2528860;29;20080;-90
2023/10/04 04:48:31;;;;;;;2.47;1.35;;;;;;;-146.56;100.00;60226.78;2530012;29;20493;-89
2023/10/04 04:50:48;;;;;;;3.15;1.73;;;;;;;-146.56;100.00;60226.78;2529928;29;20087;-89
2023/10/04 04:53:08;;;;;;;2.95;1.40;;;;;;;-146.56;100.00;60226.78;2530303;29;20107;-90
2023/10/04 04:55:26;;;;;;;3.17;1.60;;;;;;;-146.56;100.00;60226.78;2524065;29;20052;-89
2023/10/04 04:57:41;;;;;;;2.47;1.30;;;;;;;-146.56;100.00;60226.78;2519539;29;20052;-88
2023/10/04 04:59:56;;;;;;;3.80;1.45;;;;;;;-146.56;100.00;60226.78;2530839;29;20081;-89
2023/10/04 05:02:10;;;;;;;2.00;1.42;;;;;;;-146.56;100.00;60226.78;2529822;29;20119;-89
2023/10/04 05:04:24;;;;;;;;;;;;;;;-146.56;100.00;60226.78;2530331;29;20052;-88
2023/10/04 05:06:39;;;;;;;2.20;1.35;;;;;;;-146.56;100.00;60226.78;2517327;29;19932;-88
2023/10/04 05:08:57;;;;;;;2.10;1.40;;;;;;;-146.56;100.00;60226.78;2528958;29;20504;-88
2023/10/04 05:11:11;;;;;;;4.00;1.80;;;;;;;-146.56;100.00;60226.78;2530594;29;20439;-90
2023/10/04 05:13:25;;;;;;;2.35;1.38;;;;;;;-146.56;100.00;60226.78;2518437;29;20917;-89
2023/10/04 05:15:42;;;;;;;5.85;1.50;;;;;;;-146.56;100.00;60226.78;2530381;29;20477;-89
2023/10/04 05:17:56;;;;;;;3.17;1.20;;;;;;;-146.56;100.00;60226.78;2518257;29;20120;-88
2023/10/04 05:20:14;;;;;;;3.28;1.40;;;;;;;-146.56;100.00;60226.78;2528369;29;20040;-87
2023/10/04 05:22:28;;;;;;;1.75;1.30;;;;;;;-146.56;100.00;60226.78;2529235;29;20197;-89
2023/10/04 05:24:42;;;;;;;3.55;1.52;;;;;;;-146.56;100.00;60226.78;2530138;29;20058;-88
2023/10/04 05:26:57;;;;;;;1.40;0.98;;;;;;;-146.56;100.00;60226.78;2530375;29;20540;-88
2023/10/04 05:29:12;;;;;;;2.13;1.50;;;;;;;-146.56;100.00;60226.78;2529505;29;20056;-89
2023/10/04 05:31:26;;;;;;;3.30;1.50;;;;;;;-146.56;100.00;60226.78;2519273;29;20076;-89
2023/10/04 05:33:41;;;;;;;2.22;1.30;;;;;;;-146.56;100.00;60226.78;2529251;29;20136;-88
2023/10/04 05:35:55;;;;;;;3.58;1.65;;;;;;;-146.56;100.00;60226.78;2528782;29;20544;-89
2023/10/04 05:38:14;;;;;;;;;;;;;;;-146.56;100.00;60226.78;2528818;29;20421;-89
2023/10/04 05:40:29;;;;;;;1.98;1.40;;;;;;;-146.56;100.00;60226.78;2519058;29;19934;-90
2023/10/04 05:42:44;;;;;;;3.47;1.80;;;;;;;-146.56;100.00;60226.78;2519601;29;20048;-88
2023/10/04 05:44:58;;;;;;;3.05;1.63;;;;;;;-146.56;100.00;60226.78;2530007;29;20068;-89
2023/10/04 05:47:13;;;;;;;3.28;1.35;;;;;;;-146.56;100.00;60226.78;2529402;29;20060;-88
2023/10/04 05:49:27;;;;;;;3.70;1.88;;;;;;;-146.56;100.00;60226.78;2528633;29;20521;-89
2023/10/04 05:51:41;;;;;;;3.10;1.75;;;;;;;-146.56;100.00;60226.78;2529417;29;20048;-89
2023/10/04 05:53:55;;;;;;;;;;;;;;;-146.56;100.00;60226.78;2529895;29;20517;-90
2023/10/04 05:56:09;;;;;;;3.17;1.88;;;;;;;-146.56;100.00;60226.78;2530278;29;19927;-90
2023/10/04 05:58:25;;;;;;;4.90;1.70;;;;;;;-146.56;100.00;60226.78;2529843;29;20080;-90
2023/10/04 06:00:41;;;;;;;2.58;1.67;;;;;;;-146.56;100.00;60226.78;2530154;29;20069;-90
2023/10/04 06:02:58;;;;;;;2.42;1.52;;;;;;;-146.56;100.00;60226.78;2529296;29;20068;-91
2023/10/04 06:05:14;;;;;;;3.85;2.10;;;;;;;-146.56;100.00;60226.78;2529310;29;20585;-89
2023/10/04 06:07:29;;;;;;;3.55;2.15;;;;;;;-146.56;100.00;60226.78;2529060;29;20052;-90
2023/10/04 06:09:44;;;;;;;3.88;2.00;;;;;;;-146.56;100.00;60226.78;2529412;29;20516;-90
2023/10/04 06:11:58;;;;;;;3.25;1.70;;;;;;;-146.56;100.00;60226.78;2529817;29;20478;-89
2023/10/04 06:14:12;;;;;;;4.82;2.03;;;;;;;-146.56;100.00;60226.78;2518811;29;20710;-91
2023/10/04 06:16:26;;;;;;;;;;;;;;;-146.56;100.00;60226.78;2530122;29;20056;-90
2023/10/04 06:18:42;;;;;;;2.67;1.67;;;;;;;-146.56;100.00;60226.78;2528958;29;19927;-91
2023/10/04 06:20:56;;;;;;;2.20;1.90;;;;;;;-146.56;100.00;60226.78;2529128;29;20469;-89
2023/10/04 06:23:11;;;;;;;2.45;1.77;;;;;;;-146.56;100.00;60226.78;2522501;29;20052;-89
2023/10/04 06:25:26;;;;;;;4.60;2.10;;;;;;;-146.56;100.00;60226.78;2513752;29;20559;-90
2023/10/04 06:27:40;;;;;;;4.38;2.17;;;;;;;-146.56;100.00;60226.78;2529574;29;20111;-89
2023/10/04 06:29:54;;;;;;;3.97;1.92;;;;;;;-146.56;100.00;60226.78;2524738;29;20057;-89
2023/10/04 06:32:09;;;;;;;4.70;2.17;;;;;;;-146.56;100.00;60226.78;2518893;29;20174;-88
2023/10/04 06:34:24;;;;;;;4.63;2.20;;;;;;;-146.56;100.00;60226.78;2528976;29;20048;-88
2023/10/04 06:36:38;;;;;;;3.85;2.10;;;;;;;-146.56;100.00;60226.78;2528781;29;20489;-89
2023/10/04 06:38:56;;;;;;;3.10;1.90;;;;;;;-146.56;100.00;60226.78;2528942;29;20541;-89
2023/10/04 06:41:10;;;;;;;3.85;1.70;;;;;;;-146.56;100.00;60226.78;2528906;29;20059;-89
2023/10/04 06:43:24;;;;;;;3.20;1.67;;;;;;;-146.56;100.00;60226.78;2518573;29;20080;-88
2023/10/04 06:45:39;;;;;;;4.10;1.92;;;;;;;-146.56;100.00;60226.78;2529778;29;20135;-89
2023/10/04 06:47:54;;;;;;;5.35;2.35;;;;;;;-146.56;100.00;60226.78;2529506;29;20076;-89
2023/10/04 06:50:09;;;;;;;4.35;2.15;;;;;;;-146.56;100.00;60226.78;2528959;29;20116;-89
2023/10/04 06:52:23;;;;;;;3.88;2.38;;;;;;;-146.56;100.00;60226.78;2528722;29;20049;-88
2023/10/04 06:54:37;;;;;;;2.58;1.92;;;;;;;-146.56;100.00;60226.78;2518133;29;20056;-88
2023/10/04 06:56:52;;;;;;;4.93;2.08;;;;;;;-146.56;100.00;60226.78;2529170;29;20048;-89
2023/10/04 06:59:07;;;;;;;2.85;2.20;;;;;;;-146.56;100.00;60226.78;2529445;29;20501;-89
2023/10/04 07:01:24;;;;;;;4.00;2.00;;;;;;;-146.56;100.00;60226.78;2529423;29;20076;-89
2023/10/04 07:03:39;;;;;;;3.75;2.10;;;;;;;-146.56;100.00;60226.78;2529331;29;20124;-89
2023/10/04 07:05:53;;;;;;;4.85;2.00;;;;;;;-146.56;100.00;60226.78;2517737;29;20124;-89
2023/10/04 07:08:12;;;;;;;2.53;1.98;;;;;;;-146.56;100.00;60226.78;2528735;29;20075;-88
2023/10/04 07:10:28;;;;;;;2.95;2.10;;;;;;;-146.56;100.00;60226.78;2517813;29;20126;-89
2023/10/04 07:12:45;;;;;;;3.45;1.63;;;;;;;-146.56;100.00;60226.78;2528919;29;20076;-89
2023/10/04 07:15:00;;;;;;;4.68;1.90;;;;;;;-146.56;100.00;60226.78;2529427;29;20051;-89
2023/10/04 07:17:15;;;;;;;;;;;;;;;-146.56;100.00;60226.78;2529761;29;20084;-90
2023/10/04 07:19:29;;;;;;;3.00;1.80;;;;;;;-146.56;100.00;60226.78;2529248;29;19975;-89
2023/10/04 07:21:43;;;;;;;2.83;1.77;;;;;;;-146.56;100.00;60226.78;2528628;29;20083;-89
2023/10/04 07:23:57;;;;;;;2.58;1.80;;;;;;;-146.56;100.00;60226.78;2528554;29;20072;-88
2023/10/04 07:26:12;;;;;;;3.05;2.25;;;;;;;-146.56;100.00;60226.78;2528546;29;20056;-88
2023/10/04 07:28:26;;;;;;;5.43;2.30;;;;;;;-146.56;100.00;60226.78;2528926;29;20060;-88
2023/10/04 07:30:40;;;;;;;3.78;2.80;;;;;;;-146.56;100.00;60226.78;2529224;29;20048;-88
2023/10/04 07:32:55;;;;;;;;;;;;;;;-146.56;100.00;60226.78;2525241;29;20079;-89
2023/10/04 07:35:15;;;;;;;3.53;2.15;;;;;;;-146.56;100.00;60226.78;2528746;29;19990;-88
2023/10/04 07:37:29;;;;;;;5.38;2.20;;;;;;;-146.56;100.00;60226.78;2517495;29;20068;-89
2023/10/04 07:39:43;;;;;;;2.85;2.00;;;;;;;-146.56;100.00;60226.78;2528280;29;20103;-88
2023/10/04 07:41:58;;;;;;;4.07;2.08;;;;;;;-146.56;100.00;60226.78;2528673;29;20078;-88
2023/10/04 07:44:13;;;;;;;4.15;2.30;;;;;;;-146.56;100.00;60226.78;2528928;29;20112;-90
2023/10/04 07:46:27;;;;;;;4.22;2.70;;;;;;;-146.56;100.00;60226.78;2529335;29;20665;-90
2023/10/04 07:48:42;;;;;;;3.72;2.20;;;;;;;-146.56;100.00;60226.78;2518280;29;20049;-89
2023/10/04 07:50:56;;;;;;;4.88;2.05;;;;;;;-146.56;100.00;60226.78;2529132;29;20095;-89
2023/10/04 07:53:10;;;;;;;3.97;2.55;;;;;;;-146.56;100.00;60226.78;2530345;29;20064;-89
2023/10/04 07:55:25;;;;;;;4.28;2.60;;;;;;;-146.56;100.00;60226.78;2529318;29;20831;-89
2023/10/04 07:57:42;;;;;;;4.63;2.60;;;;;;;-146.56;100.00;60226.78;2530520;29;20079;-89
2023/10/04 07:59:56;;;;;;;4.13;2.60;;;;;;;-146.56;100.00;60226.78;2520435;29;20053;-89
2023/10/04 08:02:13;;;;;;;3.55;2.38;;;;;;;-146.56;100.00;60226.78;2530104;29;20482;-89
2023/10/04 08:04:28;;;;;;;5.25;2.50;;;;;;;-146.56;100.00;60226.78;2520127;29;20036;-89
2023/10/04 08:06:44;;;;;;;3.35;2.38;;;;;;;-146.56;100.00;60226.78;2530933;29;20076;-91
2023/10/04 08:08:59;;;;;;;3.53;2.33;;;;;;;-146.56;100.00;60226.78;2530204;29;20075;-89
2023/10/04 08:11:14;;;;;;;7.43;2.65;;;;;;;-146.56;100.00;60226.78;2530247;29;20044;-89
2023/10/04 08:13:28;;;;;;;3.97;2.30;;;;;;;-146.56;100.00;60226.78;2530241;29;20580;-89
2023/10/04 08:15:42;;;;;;;4.22;1.90;;;;;;;-146.56;100.00;60226.78;2531332;29;20438;-88
2023/10/04 08:17:58;;;;;;;;;;;;;;;-146.56;100.00;60226.78;2531700;29;20329;-89
2023/10/04 08:20:12;;;;;;;5.53;1.85;;;;;;;-146.56;100.00;60226.78;2531142;29;19924;-89
2023/10/04 08:22:29;;;;;;;4.63;2.10;;;;;;;-146.56;100.00;60226.78;2530143;29;20076;-89
2023/10/04 08:24:46;;;;;;;5.68;2.80;;;;;;;-146.56;100.00;60226.78;2530111;29;20666;-89
2023/10/04 08:27:10;;;;;;;4.65;2.33;;;;;;;-146.56;100.00;60226.78;2530348;29;20052;-90
2023/10/04 08:29:24;;;;;;;4.90;2.30;;;;;;;-146.56;100.00;60226.78;2530131;29;20086;-89
2023/10/04 08:31:39;;;;;;;;;;;;;;;-146.56;100.00;60226.78;2531399;29;20133;-89
2023/10/04 08:33:54;;;;;;;3.35;1.38;;;;;;;-146.56;100.00;60226.78;2530938;29;19927;-90
2023/10/04 08:36:12;;;;;;;;;;;;;;;-146.56;100.00;60226.78;2531391;29;20049;-89
2023/10/04 08:38:26;;;;;;;2.90;1.55;;;;;;;-146.56;100.00;60226.78;2530842;29;20315;-89
2023/10/04 08:40:42;;;;;;;3.95;1.75;;;;;;;-146.56;100.00;60226.78;2530159;29;20053;-89
2023/10/04 08:42:58;;;;;;;3.33;1.92;;;;;;;-146.56;100.00;60226.78;2530242;29;20151;-89
2023/10/04 08:45:12;;;;;;;2.30;1.40;;;;;;;-146.56;100.00;60226.78;2530043;29;20429;-89
2023/10/04 08:47:26;;;;;;;;;;;;;;;-146.56;100.00;60226.78;2531357;29;20080;-89
2023/10/04 08:49:43;;;;;;;5.38;2.10;;;;;;;-146.56;100.00;60226.78;2519856;29;19943;-91
2023/10/04 08:52:18;;;;;;;1.55;1.00;;;;;;;-146.56;100.00;60226.78;2530524;29;20088;-90
2023/10/04 08:54:32;;;;;;;4.63;1.90;;;;;;;-146.56;100.00;60226.78;2530786;29;20512;-90
2023/10/04 08:57:08;;;;;;;3.33;1.75;;;;;;;-146.56;100.00;60226.78;2530417;29;20053;-89
2023/10/04 08:59:24;;;;;;;3.05;1.23;;;;;;;-146.56;100.00;60226.78;2519287;29;20093;-89
2023/10/04 09:01:40;;;;;;;2.13;1.50;;;;;;;-146.56;100.00;60226.78;2529739;29;20081;-90
2023/10/04 09:03:55;;;;;;;2.53;1.38;;;;;;;-146.56;100.00;60226.78;2529480;29;20056;-89
2023/10/04 09:06:16;;;;;;;5.65;1.83;;;;;;;-146.56;100.00;60226.78;2529603;29;20057;-90
2023/10/04 09:08:31;;;;;;;2.10;1.38;;;;;;;-146.56;100.00;60226.78;2530250;29;20164;-89
2023/10/04 09:10:47;;;;;;;2.42;1.48;;;;;;;-146.56;100.00;60226.78;2531003;29;20089;-89
2023/10/04 09:13:04;;;;;;;3.88;2.20;;;;;;;-146.56;100.00;60226.78;2530133;29;20116;-91
2023/10/04 09:15:18;;;;;;;2.85;1.48;;;;;;;-146.56;100.00;60226.78;2530822;29;20389;-90
2023/10/04 09:17:42;;;;;;;3.08;1.70;;;;;;;-146.56;100.00;60226.78;2529720;29;20337;-90
2023/10/04 09:20:10;;;;;;;3.67;2.05;;;;;;;-146.56;100.00;60226.78;2518914;29;20418;-90
2023/10/04 09:22:31;;;;;;;2.88;1.45;;;;;;;-146.56;100.00;60226.78;2529557;29;20067;-89
2023/10/04 09:25:03;;;;;;;2.42;1.67;;;;;;;-146.56;100.00;60226.78;2529551;29;20044;-90
2023/10/04 09:27:18;;;;;;;3.88;1.70;;;;;;;-146.56;100.00;60226.78;2529594;29;20052;-89
2023/10/04 09:29:36;;;;;;;2.72;1.50;;;;;;;-146.56;100.00;60226.78;2530355;29;20051;-91
2023/10/04 09:31:51;;;;;;;2.72;1.20;;;;;;;-146.56;100.00;60226.78;2530611;29;20569;-90
2023/10/04 09:34:24;;;;;;;2.47;1.25;;;;;;;-146.56;100.00;60226.78;2530470;29;20052;-90
2023/10/04 09:36:43;;;;;;;2.75;1.02;;;;;;;-146.56;100.00;60226.78;2524248;29;20044;-89
2023/10/04 09:39:13;;;;;;;2.85;1.50;;;;;;;-146.56;100.00;60226.78;2519811;29;20073;-90
2023/10/04 09:41:37;;;;;;;2.65;1.55;;;;;;;-146.56;100.00;60226.78;2529449;29;20072;-90
2023/10/04 09:43:52;;;;;;;1.83;1.30;;;;;;;-146.56;100.00;60226.78;2518661;29;20087;-89
2023/10/04 09:46:09;;;;;;;2.00;1.58;;;;;;;-146.56;100.00;60226.78;2529371;29;20088;-90
2023/10/04 09:48:41;;;;;;;2.97;1.02;;;;;;;-146.56;100.00;60226.78;2529414;29;20386;-89
2023/10/04 09:51:00;;;;;;;4.82;1.50;;;;;;;-146.56;100.00;60226.78;2518366;29;20467;-90
2023/10/04 09:53:14;;;;;;;1.15;0.93;;;;;;;-146.56;100.00;60226.78;2530501;29;20052;-90
2023/10/04 09:55:32;;;;;;;3.03;1.60;;;;;;;-146.56;100.00;60226.78;2529985;29;20056;-90
2023/10/04 09:57:47;;;;;;;3.85;1.70;;;;;;;-146.56;100.00;60226.78;2530263;29;20053;-90
2023/10/04 10:00:05;;;;;;;3.22;1.75;;;;;;;-146.56;100.00;60226.78;2529910;29;20090;-90
2023/10/04 10:01:38;;;;;;;3.90;1.42;;;;;;;17.59;100.00;98389.66;2529420;29;20076;-90
2023/10/04 10:03:59;;;;;;;3.67;1.55;;;;;;;-146.56;100.00;60226.78;2529888;29;20053;-90
2023/10/04 10:05:31;;;;;;;2.55;1.30;;;;;;;15.89;100.00;99410.91;2530051;29;20111;-91
2023/10/04 10:07:00;;;;;;;4.13;1.50;;;;;;;16.08;100.00;99408.50;2529395;29;20052;-90
2023/10/04 10:08:20;;;;;;;3.05;1.70;;;;;;;16.44;100.00;99416.03;2529459;29;21266;-89
2023/10/04 10:09:57;;;;;;;1.65;1.02;;;;;;;16.38;100.00;99409.19;2530072;29;20192;-89
2023/10/04 10:11:14;;;;;;;2.40;1.25;;;;;;;16.18;100.00;99406.41;2518731;29;20045;-91